sensor_id;sensor_type;location;lat;lon;timestamp;temperature;humidity
15343;DHT22;7771;48.478;8.936;2023-12-22T00:00:21;9.80;99.90
15343;DHT22;7771;48.478;8.936;2023-12-22T00:02:49;9.80;99.90
15343;DHT22;7771;48.478;8.936;2023-12-22T00:05:15;9.80;99.90
15343;DHT22;7771;48.478;8.936;2023-12-22T00:07:43;9.80;99.90
15343;DHT22;7771;48.478;8.936;2023-12-22T00:10:10;9.80;99.90
15343;DHT22;7771;48.478;8.936;2023-12-22T00:12:37;9.70;99.90
15343;DHT22;7771;48.478;8.936;2023-12-22T00:15:05;9.70;99.90
15343;DHT22;7771;48.478;8.936;2023-12-22T00:17:32;9.70;99.90
15343;DHT22;7771;48.478;8.936;2023-12-22T00:19:59;9.70;99.90
15343;DHT22;7771;48.478;8.936;2023-12-22T00:22:26;9.70;99.90
15343;DHT22;7771;48.478;8.936;2023-12-22T00:24:53;9.70;99.90
15343;DHT22;7771;48.478;8.936;2023-12-22T00:27:20;9.70;99.90
15343;DHT22;7771;48.478;8.936;2023-12-22T00:29:48;9.70;99.90
15343;DHT22;7771;48.478;8.936;2023-12-22T00:32:15;9.70;99.90
15343;DHT22;7771;48.478;8.936;2023-12-22T00:34:44;9.70;99.90
15343;DHT22;7771;48.478;8.936;2023-12-22T00:37:10;9.70;99.90
15343;DHT22;7771;48.478;8.936;2023-12-22T00:39:37;9.80;99.90
15343;DHT22;7771;48.478;8.936;2023-12-22T00:44:34;9.90;99.90
15343;DHT22;7771;48.478;8.936;2023-12-22T00:47:00;9.80;99.90
15343;DHT22;7771;48.478;8.936;2023-12-22T00:49:28;9.80;99.90
15343;DHT22;7771;48.478;8.936;2023-12-22T00:51:54;9.80;99.90
15343;DHT22;7771;48.478;8.936;2023-12-22T00:54:22;9.70;99.90
15343;DHT22;7771;48.478;8.936;2023-12-22T00:56:50;9.70;99.90
15343;DHT22;7771;48.478;8.936;2023-12-22T00:59:17;9.70;99.90
15343;DHT22;7771;48.478;8.936;2023-12-22T01:01:43;9.80;99.90
15343;DHT22;7771;48.478;8.936;2023-12-22T01:04:10;9.80;99.90
15343;DHT22;7771;48.478;8.936;2023-12-22T01:06:37;9.80;99.90
15343;DHT22;7771;48.478;8.936;2023-12-22T01:09:03;9.70;99.90
15343;DHT22;7771;48.478;8.936;2023-12-22T01:11:31;9.60;99.90
15343;DHT22;7771;48.478;8.936;2023-12-22T01:13:58;9.50;99.90
15343;DHT22;7771;48.478;8.936;2023-12-22T01:16:27;9.40;99.90
15343;DHT22;7771;48.478;8.936;2023-12-22T01:18:53;9.50;99.90
15343;DHT22;7771;48.478;8.936;2023-12-22T01:21:21;9.40;99.90
15343;DHT22;7771;48.478;8.936;2023-12-22T01:23:48;9.40;99.90
15343;DHT22;7771;48.478;8.936;2023-12-22T01:26:15;9.40;99.90
15343;DHT22;7771;48.478;8.936;2023-12-22T01:28:41;9.40;99.90
15343;DHT22;7771;48.478;8.936;2023-12-22T01:31:09;9.40;99.90
15343;DHT22;7771;48.478;8.936;2023-12-22T01:33:35;9.40;99.90
15343;DHT22;7771;48.478;8.936;2023-12-22T01:36:04;9.40;99.90
15343;DHT22;7771;48.478;8.936;2023-12-22T01:38:31;9.40;99.90
15343;DHT22;7771;48.478;8.936;2023-12-22T01:40:58;9.50;99.90
15343;DHT22;7771;48.478;8.936;2023-12-22T01:43:26;9.50;99.90
15343;DHT22;7771;48.478;8.936;2023-12-22T01:45:56;9.50;99.90
15343;DHT22;7771;48.478;8.936;2023-12-22T01:48:23;9.60;99.90
15343;DHT22;7771;48.478;8.936;2023-12-22T01:50:50;9.70;99.90
15343;DHT22;7771;48.478;8.936;2023-12-22T01:53:18;9.50;99.90
15343;DHT22;7771;48.478;8.936;2023-12-22T01:55:45;9.40;99.90
15343;DHT22;7771;48.478;8.936;2023-12-22T01:58:11;9.20;99.90
15343;DHT22;7771;48.478;8.936;2023-12-22T02:00:38;8.90;99.90
15343;DHT22;7771;48.478;8.936;2023-12-22T02:03:06;8.70;99.90
15343;DHT22;7771;48.478;8.936;2023-12-22T02:05:32;8.60;99.90
15343;DHT22;7771;48.478;8.936;2023-12-22T02:08:00;8.50;99.90
15343;DHT22;7771;48.478;8.936;2023-12-22T02:10:26;8.50;99.90
15343;DHT22;7771;48.478;8.936;2023-12-22T02:15:22;8.40;99.90
15343;DHT22;7771;48.478;8.936;2023-12-22T02:17:55;8.40;99.90
15343;DHT22;7771;48.478;8.936;2023-12-22T02:20:21;8.40;99.90
15343;DHT22;7771;48.478;8.936;2023-12-22T02:22:52;8.40;99.90
15343;DHT22;7771;48.478;8.936;2023-12-22T02:25:18;8.30;99.90
15343;DHT22;7771;48.478;8.936;2023-12-22T02:27:49;8.40;99.90
15343;DHT22;7771;48.478;8.936;2023-12-22T02:30:19;8.40;99.90
15343;DHT22;7771;48.478;8.936;2023-12-22T02:32:46;8.40;99.90
15343;DHT22;7771;48.478;8.936;2023-12-22T02:35:12;8.50;99.90
15343;DHT22;7771;48.478;8.936;2023-12-22T02:37:38;8.50;99.90
15343;DHT22;7771;48.478;8.936;2023-12-22T02:40:06;8.50;99.90
15343;DHT22;7771;48.478;8.936;2023-12-22T02:42:33;8.40;99.90
15343;DHT22;7771;48.478;8.936;2023-12-22T02:45:01;8.50;99.90
15343;DHT22;7771;48.478;8.936;2023-12-22T02:47:29;8.50;99.90
15343;DHT22;7771;48.478;8.936;2023-12-22T02:49:55;8.40;99.90
15343;DHT22;7771;48.478;8.936;2023-12-22T02:52:23;8.50;99.90
15343;DHT22;7771;48.478;8.936;2023-12-22T02:54:51;8.50;99.90
15343;DHT22;7771;48.478;8.936;2023-12-22T02:57:18;8.50;99.90
15343;DHT22;7771;48.478;8.936;2023-12-22T02:59:45;8.50;99.90
15343;DHT22;7771;48.478;8.936;2023-12-22T03:02:11;8.60;99.90
15343;DHT22;7771;48.478;8.936;2023-12-22T03:04:38;8.60;99.90
15343;DHT22;7771;48.478;8.936;2023-12-22T03:09:34;8.70;99.90
15343;DHT22;7771;48.478;8.936;2023-12-22T03:12:01;8.60;99.90
15343;DHT22;7771;48.478;8.936;2023-12-22T03:14:30;8.60;99.90
15343;DHT22;7771;48.478;8.936;2023-12-22T03:16:58;8.60;99.90
15343;DHT22;7771;48.478;8.936;2023-12-22T03:21:52;8.60;99.90
15343;DHT22;7771;48.478;8.936;2023-12-22T03:24:20;8.60;99.90
15343;DHT22;7771;48.478;8.936;2023-12-22T03:26:46;8.50;99.90
15343;DHT22;7771;48.478;8.936;2023-12-22T03:29:14;8.50;99.90
15343;DHT22;7771;48.478;8.936;2023-12-22T03:31:42;8.50;99.90
15343;DHT22;7771;48.478;8.936;2023-12-22T03:34:08;8.50;99.90
15343;DHT22;7771;48.478;8.936;2023-12-22T03:36:36;8.50;99.90
15343;DHT22;7771;48.478;8.936;2023-12-22T03:39:03;8.60;99.90
15343;DHT22;7771;48.478;8.936;2023-12-22T03:41:30;8.60;99.90
15343;DHT22;7771;48.478;8.936;2023-12-22T03:43:58;8.60;99.90
15343;DHT22;7771;48.478;8.936;2023-12-22T03:46:25;8.60;99.90
15343;DHT22;7771;48.478;8.936;2023-12-22T03:51:20;8.70;99.90
15343;DHT22;7771;48.478;8.936;2023-12-22T03:53:47;8.80;99.90
15343;DHT22;7771;48.478;8.936;2023-12-22T03:56:14;8.80;99.90
15343;DHT22;7771;48.478;8.936;2023-12-22T03:58:41;8.80;99.90
15343;DHT22;7771;48.478;8.936;2023-12-22T04:01:08;8.80;99.90
15343;DHT22;7771;48.478;8.936;2023-12-22T04:03:35;8.80;99.90
15343;DHT22;7771;48.478;8.936;2023-12-22T04:06:02;8.90;99.90
15343;DHT22;7771;48.478;8.936;2023-12-22T04:08:29;8.90;99.90
15343;DHT22;7771;48.478;8.936;2023-12-22T04:10:56;9.00;99.90
15343;DHT22;7771;48.478;8.936;2023-12-22T04:13:23;8.90;99.90
15343;DHT22;7771;48.478;8.936;2023-12-22T04:15:49;8.90;99.90
15343;DHT22;7771;48.478;8.936;2023-12-22T04:18:17;9.00;99.90
15343;DHT22;7771;48.478;8.936;2023-12-22T04:20:43;9.10;99.90
15343;DHT22;7771;48.478;8.936;2023-12-22T04:23:11;9.00;99.90
15343;DHT22;7771;48.478;8.936;2023-12-22T04:28:06;9.20;99.90
15343;DHT22;7771;48.478;8.936;2023-12-22T04:30:33;9.20;99.90
15343;DHT22;7771;48.478;8.936;2023-12-22T04:33:01;9.20;99.90
15343;DHT22;7771;48.478;8.936;2023-12-22T04:35:28;9.20;99.90
15343;DHT22;7771;48.478;8.936;2023-12-22T04:40:24;9.20;99.90
15343;DHT22;7771;48.478;8.936;2023-12-22T04:42:50;9.20;99.90
15343;DHT22;7771;48.478;8.936;2023-12-22T04:45:18;9.20;99.90
15343;DHT22;7771;48.478;8.936;2023-12-22T04:47:44;9.10;99.90
15343;DHT22;7771;48.478;8.936;2023-12-22T04:50:12;9.20;99.90
15343;DHT22;7771;48.478;8.936;2023-12-22T04:52:38;9.10;99.90
15343;DHT22;7771;48.478;8.936;2023-12-22T04:55:05;9.10;99.90
15343;DHT22;7771;48.478;8.936;2023-12-22T04:57:32;9.00;99.90
15343;DHT22;7771;48.478;8.936;2023-12-22T04:59:58;9.00;99.90
15343;DHT22;7771;48.478;8.936;2023-12-22T05:02:25;9.00;99.90
15343;DHT22;7771;48.478;8.936;2023-12-22T05:04:52;9.00;99.90
15343;DHT22;7771;48.478;8.936;2023-12-22T05:07:19;9.00;99.90
15343;DHT22;7771;48.478;8.936;2023-12-22T05:09:46;9.00;99.90
15343;DHT22;7771;48.478;8.936;2023-12-22T05:12:14;9.10;99.90
15343;DHT22;7771;48.478;8.936;2023-12-22T05:14:42;9.10;99.90
15343;DHT22;7771;48.478;8.936;2023-12-22T05:17:10;9.10;99.90
15343;DHT22;7771;48.478;8.936;2023-12-22T05:19:38;9.10;99.90
15343;DHT22;7771;48.478;8.936;2023-12-22T05:22:05;9.10;99.90
15343;DHT22;7771;48.478;8.936;2023-12-22T05:24:32;9.10;99.90
15343;DHT22;7771;48.478;8.936;2023-12-22T05:26:59;9.10;99.90
15343;DHT22;7771;48.478;8.936;2023-12-22T05:29:27;9.20;99.90
15343;DHT22;7771;48.478;8.936;2023-12-22T05:31:55;9.20;99.90
15343;DHT22;7771;48.478;8.936;2023-12-22T05:34:21;9.20;99.90
15343;DHT22;7771;48.478;8.936;2023-12-22T05:36:49;9.20;99.90
15343;DHT22;7771;48.478;8.936;2023-12-22T05:41:43;9.20;99.90
15343;DHT22;7771;48.478;8.936;2023-12-22T05:49:19;9.40;99.90
15343;DHT22;7771;48.478;8.936;2023-12-22T05:51:46;9.30;99.90
15343;DHT22;7771;48.478;8.936;2023-12-22T05:54:14;9.40;99.90
15343;DHT22;7771;48.478;8.936;2023-12-22T05:56:41;9.40;99.90
15343;DHT22;7771;48.478;8.936;2023-12-22T05:59:08;9.40;99.90
15343;DHT22;7771;48.478;8.936;2023-12-22T06:04:03;9.40;99.90
15343;DHT22;7771;48.478;8.936;2023-12-22T06:06:30;9.40;99.90
15343;DHT22;7771;48.478;8.936;2023-12-22T06:08:56;9.50;99.90
15343;DHT22;7771;48.478;8.936;2023-12-22T06:11:24;9.50;99.90
15343;DHT22;7771;48.478;8.936;2023-12-22T06:16:18;9.50;99.90
15343;DHT22;7771;48.478;8.936;2023-12-22T06:18:45;9.50;99.90
15343;DHT22;7771;48.478;8.936;2023-12-22T06:21:12;9.50;99.90
15343;DHT22;7771;48.478;8.936;2023-12-22T06:23:39;9.50;99.90
15343;DHT22;7771;48.478;8.936;2023-12-22T06:26:08;9.50;99.90
15343;DHT22;7771;48.478;8.936;2023-12-22T06:28:34;9.60;99.90
15343;DHT22;7771;48.478;8.936;2023-12-22T06:31:02;9.60;99.90
15343;DHT22;7771;48.478;8.936;2023-12-22T06:33:29;9.60;99.90
15343;DHT22;7771;48.478;8.936;2023-12-22T06:35:56;9.60;99.90
15343;DHT22;7771;48.478;8.936;2023-12-22T06:38:23;9.60;99.90
15343;DHT22;7771;48.478;8.936;2023-12-22T06:40:51;9.60;99.90
15343;DHT22;7771;48.478;8.936;2023-12-22T06:43:19;9.60;99.90
15343;DHT22;7771;48.478;8.936;2023-12-22T06:45:47;9.60;99.90
15343;DHT22;7771;48.478;8.936;2023-12-22T06:48:15;9.60;99.90
15343;DHT22;7771;48.478;8.936;2023-12-22T06:50:41;9.60;99.90
15343;DHT22;7771;48.478;8.936;2023-12-22T06:53:09;9.60;99.90
15343;DHT22;7771;48.478;8.936;2023-12-22T06:55:37;9.70;99.90
15343;DHT22;7771;48.478;8.936;2023-12-22T06:58:03;9.60;99.90
15343;DHT22;7771;48.478;8.936;2023-12-22T07:00:31;9.60;99.90
15343;DHT22;7771;48.478;8.936;2023-12-22T07:05:30;9.70;99.90
15343;DHT22;7771;48.478;8.936;2023-12-22T07:07:57;9.70;99.90
15343;DHT22;7771;48.478;8.936;2023-12-22T07:10:24;9.60;99.90
15343;DHT22;7771;48.478;8.936;2023-12-22T07:12:51;9.60;99.90
15343;DHT22;7771;48.478;8.936;2023-12-22T07:15:18;9.60;99.90
15343;DHT22;7771;48.478;8.936;2023-12-22T07:20:13;9.50;99.90
15343;DHT22;7771;48.478;8.936;2023-12-22T07:22:40;9.50;99.90
15343;DHT22;7771;48.478;8.936;2023-12-22T07:25:08;9.50;99.90
15343;DHT22;7771;48.478;8.936;2023-12-22T07:27:36;9.40;99.90
15343;DHT22;7771;48.478;8.936;2023-12-22T07:30:05;9.40;99.90
15343;DHT22;7771;48.478;8.936;2023-12-22T07:32:31;9.40;99.90
15343;DHT22;7771;48.478;8.936;2023-12-22T07:34:58;9.40;99.90
15343;DHT22;7771;48.478;8.936;2023-12-22T07:37:25;9.40;99.90
15343;DHT22;7771;48.478;8.936;2023-12-22T07:39:52;9.40;99.90
15343;DHT22;7771;48.478;8.936;2023-12-22T07:42:19;9.50;99.90
15343;DHT22;7771;48.478;8.936;2023-12-22T07:44:46;9.40;99.90
15343;DHT22;7771;48.478;8.936;2023-12-22T07:47:15;9.40;99.90
15343;DHT22;7771;48.478;8.936;2023-12-22T07:52:10;9.50;99.90
15343;DHT22;7771;48.478;8.936;2023-12-22T07:54:39;9.40;99.90
15343;DHT22;7771;48.478;8.936;2023-12-22T07:57:06;9.40;99.90
15343;DHT22;7771;48.478;8.936;2023-12-22T07:59:34;9.40;99.90
15343;DHT22;7771;48.478;8.936;2023-12-22T08:06:56;9.40;99.90
15343;DHT22;7771;48.478;8.936;2023-12-22T08:09:23;9.50;99.90
15343;DHT22;7771;48.478;8.936;2023-12-22T08:11:51;9.50;99.90
15343;DHT22;7771;48.478;8.936;2023-12-22T08:16:48;9.50;99.90
15343;DHT22;7771;48.478;8.936;2023-12-22T08:19:15;9.50;99.90
15343;DHT22;7771;48.478;8.936;2023-12-22T08:21:43;9.50;99.90
15343;DHT22;7771;48.478;8.936;2023-12-22T08:24:11;9.60;99.90
15343;DHT22;7771;48.478;8.936;2023-12-22T08:26:39;9.60;99.90
15343;DHT22;7771;48.478;8.936;2023-12-22T08:29:06;9.50;99.90
15343;DHT22;7771;48.478;8.936;2023-12-22T08:31:33;9.60;99.90
15343;DHT22;7771;48.478;8.936;2023-12-22T08:34:00;9.70;99.90
15343;DHT22;7771;48.478;8.936;2023-12-22T08:36:27;9.70;99.90
15343;DHT22;7771;48.478;8.936;2023-12-22T08:38:54;9.70;99.90
15343;DHT22;7771;48.478;8.936;2023-12-22T08:41:21;9.70;99.90
15343;DHT22;7771;48.478;8.936;2023-12-22T08:43:48;9.80;99.90
15343;DHT22;7771;48.478;8.936;2023-12-22T08:46:14;9.80;99.90
15343;DHT22;7771;48.478;8.936;2023-12-22T08:48:42;9.80;99.90
15343;DHT22;7771;48.478;8.936;2023-12-22T08:51:09;9.70;99.90
15343;DHT22;7771;48.478;8.936;2023-12-22T08:56:04;9.60;99.90
15343;DHT22;7771;48.478;8.936;2023-12-22T08:58:32;9.60;99.90
15343;DHT22;7771;48.478;8.936;2023-12-22T09:00:59;9.60;99.90
15343;DHT22;7771;48.478;8.936;2023-12-22T09:03:26;9.60;99.90
15343;DHT22;7771;48.478;8.936;2023-12-22T09:08:22;9.50;99.90
15343;DHT22;7771;48.478;8.936;2023-12-22T09:10:49;9.50;99.90
15343;DHT22;7771;48.478;8.936;2023-12-22T09:13:16;9.50;99.90
15343;DHT22;7771;48.478;8.936;2023-12-22T09:15:43;9.50;99.90
15343;DHT22;7771;48.478;8.936;2023-12-22T09:18:11;9.50;99.90
15343;DHT22;7771;48.478;8.936;2023-12-22T09:23:06;9.50;99.90
15343;DHT22;7771;48.478;8.936;2023-12-22T09:28:03;9.50;99.90
15343;DHT22;7771;48.478;8.936;2023-12-22T09:30:29;9.50;99.90
15343;DHT22;7771;48.478;8.936;2023-12-22T09:32:57;9.60;99.90
15343;DHT22;7771;48.478;8.936;2023-12-22T09:35:25;9.60;99.90
15343;DHT22;7771;48.478;8.936;2023-12-22T09:37:51;9.60;99.90
15343;DHT22;7771;48.478;8.936;2023-12-22T09:40:18;9.60;99.90
15343;DHT22;7771;48.478;8.936;2023-12-22T09:42:45;9.60;99.90
15343;DHT22;7771;48.478;8.936;2023-12-22T09:45:12;9.60;99.90
15343;DHT22;7771;48.478;8.936;2023-12-22T09:47:41;9.60;99.90
15343;DHT22;7771;48.478;8.936;2023-12-22T09:50:08;9.60;99.90
15343;DHT22;7771;48.478;8.936;2023-12-22T09:52:35;9.70;99.90
15343;DHT22;7771;48.478;8.936;2023-12-22T09:55:02;9.70;99.90
15343;DHT22;7771;48.478;8.936;2023-12-22T09:57:28;9.70;99.90
15343;DHT22;7771;48.478;8.936;2023-12-22T09:59:56;9.70;99.90
15343;DHT22;7771;48.478;8.936;2023-12-22T10:02:25;9.70;99.90
15343;DHT22;7771;48.478;8.936;2023-12-22T10:04:52;9.70;99.90
15343;DHT22;7771;48.478;8.936;2023-12-22T10:07:20;9.80;99.90
15343;DHT22;7771;48.478;8.936;2023-12-22T10:09:47;9.70;99.90
15343;DHT22;7771;48.478;8.936;2023-12-22T10:12:15;9.70;99.90
15343;DHT22;7771;48.478;8.936;2023-12-22T10:14:42;9.70;99.90
15343;DHT22;7771;48.478;8.936;2023-12-22T10:17:08;9.70;99.90
15343;DHT22;7771;48.478;8.936;2023-12-22T10:19:35;9.80;99.90
15343;DHT22;7771;48.478;8.936;2023-12-22T10:24:38;9.80;99.90
15343;DHT22;7771;48.478;8.936;2023-12-22T10:27:05;9.80;99.90
15343;DHT22;7771;48.478;8.936;2023-12-22T10:29:32;9.70;99.90
15343;DHT22;7771;48.478;8.936;2023-12-22T10:32:00;9.80;99.90
15343;DHT22;7771;48.478;8.936;2023-12-22T10:34:29;9.80;99.90
15343;DHT22;7771;48.478;8.936;2023-12-22T10:36:55;9.80;99.90
15343;DHT22;7771;48.478;8.936;2023-12-22T10:41:51;9.80;99.90
15343;DHT22;7771;48.478;8.936;2023-12-22T10:46:46;9.80;99.90
15343;DHT22;7771;48.478;8.936;2023-12-22T10:49:13;9.80;99.90
15343;DHT22;7771;48.478;8.936;2023-12-22T10:51:40;9.80;99.90
15343;DHT22;7771;48.478;8.936;2023-12-22T10:54:07;9.80;99.90
15343;DHT22;7771;48.478;8.936;2023-12-22T10:56:35;9.80;99.90
15343;DHT22;7771;48.478;8.936;2023-12-22T10:59:02;9.90;99.90
15343;DHT22;7771;48.478;8.936;2023-12-22T11:01:29;9.90;99.90
15343;DHT22;7771;48.478;8.936;2023-12-22T11:03:57;9.80;99.90
15343;DHT22;7771;48.478;8.936;2023-12-22T11:06:23;9.90;99.90
15343;DHT22;7771;48.478;8.936;2023-12-22T11:08:51;9.90;99.90
15343;DHT22;7771;48.478;8.936;2023-12-22T11:11:24;9.90;99.90
15343;DHT22;7771;48.478;8.936;2023-12-22T11:13:47;9.80;99.90
15343;DHT22;7771;48.478;8.936;2023-12-22T11:18:43;9.80;99.90
15343;DHT22;7771;48.478;8.936;2023-12-22T11:21:10;9.80;99.90
15343;DHT22;7771;48.478;8.936;2023-12-22T11:23:37;9.80;99.90
15343;DHT22;7771;48.478;8.936;2023-12-22T11:26:04;9.80;99.90
15343;DHT22;7771;48.478;8.936;2023-12-22T11:28:32;9.80;99.90
15343;DHT22;7771;48.478;8.936;2023-12-22T11:30:58;9.90;99.90
15343;DHT22;7771;48.478;8.936;2023-12-22T11:35:52;9.90;99.90
15343;DHT22;7771;48.478;8.936;2023-12-22T11:38:19;9.80;99.90
15343;DHT22;7771;48.478;8.936;2023-12-22T11:40:47;9.80;99.90
15343;DHT22;7771;48.478;8.936;2023-12-22T11:43:14;9.80;99.90
15343;DHT22;7771;48.478;8.936;2023-12-22T11:45:49;9.80;99.90
15343;DHT22;7771;48.478;8.936;2023-12-22T11:48:15;9.90;99.90
15343;DHT22;7771;48.478;8.936;2023-12-22T11:50:42;9.80;99.90
15343;DHT22;7771;48.478;8.936;2023-12-22T11:53:30;9.80;99.90
15343;DHT22;7771;48.478;8.936;2023-12-22T11:56:04;9.90;99.90
15343;DHT22;7771;48.478;8.936;2023-12-22T11:58:44;9.90;99.90
15343;DHT22;7771;48.478;8.936;2023-12-22T12:01:18;9.80;99.90
15343;DHT22;7771;48.478;8.936;2023-12-22T12:03:48;9.90;99.90
15343;DHT22;7771;48.478;8.936;2023-12-22T12:06:17;9.90;99.90
15343;DHT22;7771;48.478;8.936;2023-12-22T12:08:43;9.90;99.90
15343;DHT22;7771;48.478;8.936;2023-12-22T12:11:10;9.90;99.90
15343;DHT22;7771;48.478;8.936;2023-12-22T12:13:40;9.90;99.90
15343;DHT22;7771;48.478;8.936;2023-12-22T12:16:05;9.90;99.90
15343;DHT22;7771;48.478;8.936;2023-12-22T12:18:31;9.90;99.90
15343;DHT22;7771;48.478;8.936;2023-12-22T12:20:59;9.90;99.90
15343;DHT22;7771;48.478;8.936;2023-12-22T12:23:27;10.00;99.90
15343;DHT22;7771;48.478;8.936;2023-12-22T12:25:54;10.00;99.90
15343;DHT22;7771;48.478;8.936;2023-12-22T12:30:59;10.00;99.90
15343;DHT22;7771;48.478;8.936;2023-12-22T12:35:56;10.10;99.90
15343;DHT22;7771;48.478;8.936;2023-12-22T12:38:22;10.00;99.90
15343;DHT22;7771;48.478;8.936;2023-12-22T12:40:50;10.00;99.90
15343;DHT22;7771;48.478;8.936;2023-12-22T12:45:44;10.00;99.90
15343;DHT22;7771;48.478;8.936;2023-12-22T12:48:11;10.10;99.90
15343;DHT22;7771;48.478;8.936;2023-12-22T12:50:38;10.00;99.90
15343;DHT22;7771;48.478;8.936;2023-12-22T12:55:34;10.00;99.90
15343;DHT22;7771;48.478;8.936;2023-12-22T13:00:31;10.10;99.90
15343;DHT22;7771;48.478;8.936;2023-12-22T13:03:00;10.00;99.90
15343;DHT22;7771;48.478;8.936;2023-12-22T13:05:27;10.00;99.90
15343;DHT22;7771;48.478;8.936;2023-12-22T13:08:05;10.00;99.90
15343;DHT22;7771;48.478;8.936;2023-12-22T13:10:23;10.00;99.90
15343;DHT22;7771;48.478;8.936;2023-12-22T13:12:51;10.00;99.90
15343;DHT22;7771;48.478;8.936;2023-12-22T13:15:18;10.10;99.90
15343;DHT22;7771;48.478;8.936;2023-12-22T13:17:45;10.10;99.90
15343;DHT22;7771;48.478;8.936;2023-12-22T13:20:13;10.10;99.90
15343;DHT22;7771;48.478;8.936;2023-12-22T13:22:40;10.10;99.90
15343;DHT22;7771;48.478;8.936;2023-12-22T13:25:07;10.10;99.90
15343;DHT22;7771;48.478;8.936;2023-12-22T13:27:45;10.00;99.90
15343;DHT22;7771;48.478;8.936;2023-12-22T13:30:12;10.10;99.90
15343;DHT22;7771;48.478;8.936;2023-12-22T13:35:07;10.10;99.90
15343;DHT22;7771;48.478;8.936;2023-12-22T13:37:39;10.00;99.90
15343;DHT22;7771;48.478;8.936;2023-12-22T13:40:06;10.00;99.90
15343;DHT22;7771;48.478;8.936;2023-12-22T13:42:30;10.10;99.90
15343;DHT22;7771;48.478;8.936;2023-12-22T13:44:57;10.10;99.90
15343;DHT22;7771;48.478;8.936;2023-12-22T13:47:25;10.10;99.90
15343;DHT22;7771;48.478;8.936;2023-12-22T13:49:51;10.10;99.90
15343;DHT22;7771;48.478;8.936;2023-12-22T13:52:25;10.10;99.90
15343;DHT22;7771;48.478;8.936;2023-12-22T13:54:52;10.10;99.90
15343;DHT22;7771;48.478;8.936;2023-12-22T13:57:21;10.10;99.90
15343;DHT22;7771;48.478;8.936;2023-12-22T13:59:49;10.10;99.90
15343;DHT22;7771;48.478;8.936;2023-12-22T14:02:16;10.10;99.90
15343;DHT22;7771;48.478;8.936;2023-12-22T14:04:42;10.10;99.90
15343;DHT22;7771;48.478;8.936;2023-12-22T14:07:10;10.10;99.90
15343;DHT22;7771;48.478;8.936;2023-12-22T14:09:36;10.00;99.90
15343;DHT22;7771;48.478;8.936;2023-12-22T14:12:05;10.10;99.90
15343;DHT22;7771;48.478;8.936;2023-12-22T14:14:31;10.10;99.90
15343;DHT22;7771;48.478;8.936;2023-12-22T14:16:58;10.10;99.90
15343;DHT22;7771;48.478;8.936;2023-12-22T14:19:24;10.10;99.90
15343;DHT22;7771;48.478;8.936;2023-12-22T14:21:51;10.10;99.90
15343;DHT22;7771;48.478;8.936;2023-12-22T14:24:18;10.10;99.90
15343;DHT22;7771;48.478;8.936;2023-12-22T14:26:53;10.10;99.90
15343;DHT22;7771;48.478;8.936;2023-12-22T14:29:19;10.10;99.90
15343;DHT22;7771;48.478;8.936;2023-12-22T14:31:46;10.10;99.90
15343;DHT22;7771;48.478;8.936;2023-12-22T14:34:13;10.10;99.90
15343;DHT22;7771;48.478;8.936;2023-12-22T14:36:40;10.10;99.90
15343;DHT22;7771;48.478;8.936;2023-12-22T14:39:07;10.10;99.90
15343;DHT22;7771;48.478;8.936;2023-12-22T14:41:35;10.10;99.90
15343;DHT22;7771;48.478;8.936;2023-12-22T14:44:01;10.20;99.90
15343;DHT22;7771;48.478;8.936;2023-12-22T14:46:29;10.20;99.90
15343;DHT22;7771;48.478;8.936;2023-12-22T14:48:56;10.20;99.90
15343;DHT22;7771;48.478;8.936;2023-12-22T14:51:23;10.30;99.90
15343;DHT22;7771;48.478;8.936;2023-12-22T14:53:50;10.30;99.90
15343;DHT22;7771;48.478;8.936;2023-12-22T14:58:46;10.30;99.90
15343;DHT22;7771;48.478;8.936;2023-12-22T15:01:13;10.40;99.90
15343;DHT22;7771;48.478;8.936;2023-12-22T15:03:41;10.40;99.90
15343;DHT22;7771;48.478;8.936;2023-12-22T15:06:09;10.40;99.90
15343;DHT22;7771;48.478;8.936;2023-12-22T15:08:35;10.40;99.90
15343;DHT22;7771;48.478;8.936;2023-12-22T15:11:03;10.40;99.90
15343;DHT22;7771;48.478;8.936;2023-12-22T15:13:29;10.40;99.90
15343;DHT22;7771;48.478;8.936;2023-12-22T15:15:57;10.50;99.90
15343;DHT22;7771;48.478;8.936;2023-12-22T15:18:23;10.50;99.90
15343;DHT22;7771;48.478;8.936;2023-12-22T15:20:50;10.40;99.90
15343;DHT22;7771;48.478;8.936;2023-12-22T15:23:17;10.40;99.90
15343;DHT22;7771;48.478;8.936;2023-12-22T15:25:44;10.40;99.90
15343;DHT22;7771;48.478;8.936;2023-12-22T15:28:11;10.40;99.90
15343;DHT22;7771;48.478;8.936;2023-12-22T15:30:37;10.40;99.90
15343;DHT22;7771;48.478;8.936;2023-12-22T15:33:05;10.40;99.90
15343;DHT22;7771;48.478;8.936;2023-12-22T15:35:32;10.30;99.90
15343;DHT22;7771;48.478;8.936;2023-12-22T15:40:26;10.30;99.90
15343;DHT22;7771;48.478;8.936;2023-12-22T15:42:53;10.30;99.90
15343;DHT22;7771;48.478;8.936;2023-12-22T15:47:48;10.30;99.90
15343;DHT22;7771;48.478;8.936;2023-12-22T15:50:15;10.30;99.90
15343;DHT22;7771;48.478;8.936;2023-12-22T15:52:42;10.30;99.90
15343;DHT22;7771;48.478;8.936;2023-12-22T15:55:10;10.30;99.90
15343;DHT22;7771;48.478;8.936;2023-12-22T16:02:34;10.30;99.90
15343;DHT22;7771;48.478;8.936;2023-12-22T16:07:31;10.20;99.90
15343;DHT22;7771;48.478;8.936;2023-12-22T16:09:58;10.20;99.90
15343;DHT22;7771;48.478;8.936;2023-12-22T16:12:25;10.20;99.90
15343;DHT22;7771;48.478;8.936;2023-12-22T16:14:52;10.20;99.90
15343;DHT22;7771;48.478;8.936;2023-12-22T16:17:19;10.20;99.90
15343;DHT22;7771;48.478;8.936;2023-12-22T16:19:46;10.20;99.90
15343;DHT22;7771;48.478;8.936;2023-12-22T16:22:14;10.30;99.90
15343;DHT22;7771;48.478;8.936;2023-12-22T16:24:41;10.20;99.90
15343;DHT22;7771;48.478;8.936;2023-12-22T16:27:08;10.20;99.90
15343;DHT22;7771;48.478;8.936;2023-12-22T16:29:38;10.30;99.90
15343;DHT22;7771;48.478;8.936;2023-12-22T16:32:01;10.30;99.90
15343;DHT22;7771;48.478;8.936;2023-12-22T16:34:32;10.30;99.90
15343;DHT22;7771;48.478;8.936;2023-12-22T16:36:59;10.30;99.90
15343;DHT22;7771;48.478;8.936;2023-12-22T16:39:25;10.30;99.90
15343;DHT22;7771;48.478;8.936;2023-12-22T16:41:53;10.30;99.90
15343;DHT22;7771;48.478;8.936;2023-12-22T16:44:20;10.20;99.90
15343;DHT22;7771;48.478;8.936;2023-12-22T16:46:48;10.30;99.90
15343;DHT22;7771;48.478;8.936;2023-12-22T16:49:15;10.20;99.90
15343;DHT22;7771;48.478;8.936;2023-12-22T16:51:42;10.20;99.90
15343;DHT22;7771;48.478;8.936;2023-12-22T16:54:09;10.20;99.90
15343;DHT22;7771;48.478;8.936;2023-12-22T16:56:37;10.20;99.90
15343;DHT22;7771;48.478;8.936;2023-12-22T16:59:04;10.30;99.90
15343;DHT22;7771;48.478;8.936;2023-12-22T17:01:31;10.30;99.90
15343;DHT22;7771;48.478;8.936;2023-12-22T17:03:59;10.30;99.90
15343;DHT22;7771;48.478;8.936;2023-12-22T17:06:26;10.30;99.90
15343;DHT22;7771;48.478;8.936;2023-12-22T17:08:54;10.30;99.90
15343;DHT22;7771;48.478;8.936;2023-12-22T17:11:20;10.30;99.90
15343;DHT22;7771;48.478;8.936;2023-12-22T17:13:48;10.30;99.90
15343;DHT22;7771;48.478;8.936;2023-12-22T17:16:14;10.30;99.90
15343;DHT22;7771;48.478;8.936;2023-12-22T17:18:41;10.30;99.90
15343;DHT22;7771;48.478;8.936;2023-12-22T17:21:08;10.20;99.90
15343;DHT22;7771;48.478;8.936;2023-12-22T17:23:34;10.20;99.90
15343;DHT22;7771;48.478;8.936;2023-12-22T17:26:02;10.20;99.90
15343;DHT22;7771;48.478;8.936;2023-12-22T17:28:28;10.20;99.90
15343;DHT22;7771;48.478;8.936;2023-12-22T17:30:56;10.20;99.90
15343;DHT22;7771;48.478;8.936;2023-12-22T17:33:23;10.20;99.90